createdAt,value
2022-09-18T00:02:09.296Z,13.93
2022-09-18T00:04:35.894Z,9.85
2022-09-18T00:07:02.387Z,13.43
2022-09-18T00:09:28.869Z,9.35
2022-09-18T00:11:56.403Z,11.25
2022-09-18T00:14:23.406Z,8.82
2022-09-18T00:16:50.586Z,10.52
2022-09-18T00:19:18.044Z,11.55
2022-09-18T00:21:47.718Z,10.77
2022-09-18T00:24:14.600Z,8.75
2022-09-18T00:26:41.055Z,9.68
2022-09-18T00:29:07.565Z,10.70
2022-09-18T00:31:36.140Z,12.32
2022-09-18T00:34:05.999Z,9.90
2022-09-18T00:36:32.474Z,13.32
2022-09-18T00:38:59.369Z,12.93
2022-09-18T00:41:28.857Z,6.78
2022-09-18T00:44:16.552Z,9.07
2022-09-18T00:46:44.651Z,12.30
2022-09-18T00:49:15.829Z,9.82
2022-09-18T00:51:44.199Z,12.48
2022-09-18T00:54:21.879Z,11.38
2022-09-18T00:56:50.718Z,9.80
2022-09-18T00:59:20.927Z,12.88
2022-09-18T01:01:47.417Z,10.50
2022-09-18T01:04:14.077Z,7.43
2022-09-18T01:07:03.190Z,12.60
2022-09-18T01:09:44.950Z,10.52
2022-09-18T01:12:38.219Z,12.68
2022-09-18T01:15:29.931Z,5.73
2022-09-18T01:18:18.614Z,12.85
2022-09-18T01:21:01.201Z,10.05
2022-09-18T01:23:41.691Z,8.88
2022-09-18T01:26:35.599Z,7.07
2022-09-18T01:29:25.775Z,8.95
2022-09-18T01:32:01.503Z,6.00
2022-09-18T01:34:37.328Z,4.47
2022-09-18T01:37:15.328Z,4.55
2022-09-18T01:39:47.328Z,6.18
2022-09-18T01:42:16.202Z,5.35
2022-09-18T01:44:44.333Z,6.75
2022-09-18T01:47:14.023Z,8.23
2022-09-18T01:49:46.356Z,7.53
2022-09-18T01:52:32.942Z,6.43
2022-09-18T01:55:01.823Z,5.78
2022-09-18T01:57:33.254Z,8.93
2022-09-18T02:00:07.946Z,9.90
2022-09-18T02:02:41.175Z,6.00
2022-09-18T02:05:10.575Z,9.30
2022-09-18T02:07:51.063Z,6.25
2022-09-18T02:10:19.775Z,6.22
2022-09-18T02:12:47.595Z,5.97
2022-09-18T02:15:15.302Z,5.07
2022-09-18T02:17:57.639Z,7.32
2022-09-18T02:20:27.162Z,7.47
2022-09-18T02:22:57.227Z,4.32
2022-09-18T02:25:27.922Z,8.73
2022-09-18T02:27:54.962Z,5.55
2022-09-18T02:30:21.582Z,6.53
2022-09-18T02:32:48.179Z,5.32
2022-09-18T02:35:15.423Z,8.73
2022-09-18T02:37:47.756Z,6.50
2022-09-18T02:40:26.136Z,5.28
2022-09-18T02:43:18.631Z,7.40
2022-09-18T02:45:57.120Z,7.28
2022-09-18T02:48:36.582Z,8.25
2022-09-18T02:51:20.954Z,10.45
2022-09-18T02:53:57.136Z,7.15
2022-09-18T02:56:44.862Z,8.25
2022-09-18T02:59:18.570Z,7.72
2022-09-18T03:04:14.089Z,7.05
2022-09-18T03:06:40.882Z,6.07
2022-09-18T03:09:07.447Z,8.88
2022-09-18T03:11:33.914Z,9.02
2022-09-18T03:14:00.359Z,12.30
2022-09-18T03:16:26.891Z,10.52
2022-09-18T03:18:53.411Z,8.85
2022-09-18T03:21:20.882Z,8.25
2022-09-18T03:23:47.355Z,9.45
2022-09-18T03:26:13.835Z,9.23
2022-09-18T03:28:40.331Z,9.68
2022-09-18T03:31:06.859Z,7.30
2022-09-18T03:33:33.313Z,6.75
2022-09-18T03:35:59.841Z,11.15
2022-09-18T03:38:26.275Z,10.15
2022-09-18T03:40:52.760Z,8.07
2022-09-18T03:43:19.244Z,9.77
2022-09-18T03:45:45.775Z,7.53
2022-09-18T03:48:12.228Z,7.75
2022-09-18T03:50:38.697Z,7.00
2022-09-18T03:53:05.141Z,6.97
2022-09-18T03:55:31.875Z,5.03
2022-09-18T03:57:58.402Z,8.57
2022-09-18T04:00:25.559Z,7.68
2022-09-18T04:02:52.029Z,7.00
2022-09-18T04:05:18.869Z,6.82
2022-09-18T04:07:51.925Z,9.77
2022-09-18T04:10:18.573Z,8.18
2022-09-18T04:12:45.634Z,9.55
2022-09-18T04:15:12.086Z,12.93
2022-09-18T04:17:38.584Z,12.93
2022-09-18T04:20:05.328Z,11.65
2022-09-18T04:22:31.790Z,11.88
2022-09-18T04:24:58.270Z,8.75
2022-09-18T04:27:24.755Z,12.50
2022-09-18T04:29:51.667Z,11.75
2022-09-18T04:32:18.138Z,10.60
2022-09-18T04:34:44.609Z,9.98
2022-09-18T04:37:11.235Z,12.18
2022-09-18T04:39:37.720Z,8.73
2022-09-18T04:42:04.766Z,7.70
2022-09-18T04:44:31.219Z,9.25
2022-09-18T04:46:57.857Z,7.30
2022-09-18T04:49:24.374Z,9.18
2022-09-18T04:51:50.867Z,8.98
2022-09-18T04:54:17.310Z,16.70
2022-09-18T04:56:43.767Z,7.72
2022-09-18T04:59:10.215Z,11.68
2022-09-18T05:01:36.759Z,12.57
2022-09-18T05:04:03.241Z,12.20
2022-09-18T05:06:29.700Z,10.27
2022-09-18T05:08:57.574Z,10.85
2022-09-18T05:11:24.089Z,12.27
2022-09-18T05:13:52.389Z,10.55
2022-09-18T05:16:19.004Z,13.60
2022-09-18T05:18:45.508Z,6.50
2022-09-18T05:21:11.987Z,9.18
2022-09-18T05:23:38.485Z,10.02
2022-09-18T05:26:04.948Z,10.45
2022-09-18T05:28:31.428Z,6.05
2022-09-18T05:30:59.539Z,7.28
2022-09-18T05:33:26.456Z,6.57
2022-09-18T05:35:57.099Z,12.80
2022-09-18T05:38:24.526Z,6.28
2022-09-18T05:40:51.174Z,9.82
2022-09-18T05:43:18.085Z,7.18
2022-09-18T05:45:44.690Z,8.05
2022-09-18T05:48:14.442Z,6.25
2022-09-18T05:50:42.604Z,5.72
2022-09-18T05:53:16.719Z,5.43
2022-09-18T05:55:43.289Z,5.68
2022-09-18T05:58:16.080Z,4.43
2022-09-18T06:00:44.663Z,3.57
2022-09-18T06:03:14.124Z,6.32
2022-09-18T06:05:41.556Z,5.45
2022-09-18T06:08:09.951Z,8.60
2022-09-18T06:10:37.965Z,9.13
2022-09-18T06:13:15.932Z,10.73
2022-09-18T06:15:49.921Z,7.63
2022-09-18T06:18:16.458Z,8.55
2022-09-18T06:20:44.132Z,11.32
2022-09-18T06:23:11.051Z,5.03
2022-09-18T06:25:37.678Z,9.82
2022-09-18T06:28:06.463Z,7.20
2022-09-18T06:30:34.945Z,5.70
2022-09-18T06:33:03.505Z,10.07
2022-09-18T06:35:30.270Z,9.20
2022-09-18T06:38:00.450Z,13.05
2022-09-18T06:40:27.034Z,10.25
2022-09-18T06:42:57.293Z,7.40
2022-09-18T06:45:26.934Z,5.22
2022-09-18T06:47:54.987Z,7.65
2022-09-18T06:50:25.249Z,6.93
2022-09-18T06:52:51.740Z,6.70
2022-09-18T06:55:18.588Z,6.10
2022-09-18T06:57:54.175Z,9.32
2022-09-18T07:00:20.765Z,7.07
2022-09-18T07:02:47.219Z,6.85
2022-09-18T07:05:13.775Z,6.03
2022-09-18T07:07:40.292Z,5.07
2022-09-18T07:10:09.244Z,9.18
2022-09-18T07:12:35.889Z,8.48
2022-09-18T07:15:02.669Z,7.00
2022-09-18T07:17:34.916Z,8.00
2022-09-18T07:20:01.414Z,7.63
2022-09-18T07:22:28.647Z,5.40
2022-09-18T07:24:55.090Z,7.82
2022-09-18T07:27:21.575Z,5.80
2022-09-18T07:29:48.150Z,3.53
2022-09-18T07:32:14.661Z,3.38
2022-09-18T07:34:41.110Z,6.43
2022-09-18T07:37:08.134Z,7.70
2022-09-18T07:39:34.574Z,5.22
2022-09-18T07:42:03.596Z,5.80
2022-09-18T07:44:34.279Z,5.97
2022-09-18T07:47:00.856Z,5.63
2022-09-18T07:49:27.336Z,4.72
2022-09-18T07:52:07.949Z,7.60
2022-09-18T07:54:35.319Z,5.28
2022-09-18T07:57:01.788Z,8.98
2022-09-18T07:59:28.404Z,5.00
2022-09-18T08:01:55.796Z,4.45
2022-09-18T08:04:22.679Z,10.65
2022-09-18T08:06:53.385Z,5.95
2022-09-18T08:09:19.951Z,6.07
2022-09-18T08:11:46.856Z,6.30
2022-09-18T08:14:13.333Z,18.15
2022-09-18T08:23:55.754Z,7.72
2022-09-18T08:27:14.768Z,5.35
2022-09-18T08:30:09.606Z,8.27
2022-09-18T08:39:11.188Z,5.65
2022-09-18T08:41:50.994Z,4.80
2022-09-18T08:44:47.733Z,5.53
2022-09-18T08:47:26.548Z,9.65
2022-09-18T08:50:01.606Z,9.38
2022-09-18T08:52:31.725Z,9.02
2022-09-18T08:55:02.481Z,5.40
2022-09-18T08:57:36.482Z,7.60
2022-09-18T09:00:10.136Z,8.23
2022-09-18T09:05:11.765Z,5.75
2022-09-18T09:07:48.188Z,9.50
2022-09-18T09:10:21.151Z,6.13
2022-09-18T09:13:06.378Z,8.40
2022-09-18T09:15:56.595Z,8.18
2022-09-18T09:18:38.418Z,8.25
2022-09-18T09:21:24.767Z,10.27
2022-09-18T09:23:57.110Z,12.80
2022-09-18T09:26:25.152Z,8.20
2022-09-18T09:29:08.912Z,5.85
2022-09-18T09:31:42.747Z,7.93
2022-09-18T09:34:25.718Z,7.70
2022-09-18T09:36:56.101Z,8.68
2022-09-18T09:39:23.952Z,8.00
2022-09-18T09:42:03.190Z,7.68
2022-09-18T09:44:43.969Z,9.00
2022-09-18T09:47:23.789Z,9.45
2022-09-18T09:49:56.501Z,4.88
2022-09-18T09:52:25.673Z,9.83
2022-09-18T09:55:07.420Z,12.30
2022-09-18T09:57:41.933Z,14.48
2022-09-18T10:00:19.302Z,10.38
2022-09-18T10:03:02.885Z,9.57
2022-09-18T10:05:32.479Z,8.88
2022-09-18T10:08:20.348Z,8.85
2022-09-18T10:10:57.025Z,7.82
2022-09-18T10:13:28.006Z,10.23
2022-09-18T10:16:00.662Z,5.90
2022-09-18T10:18:34.086Z,5.00
2022-09-18T10:21:16.560Z,8.45
2022-09-18T10:23:47.512Z,8.82
2022-09-18T10:26:20.522Z,8.05
2022-09-18T10:28:47.032Z,8.73
2022-09-18T10:31:14.546Z,8.73
2022-09-18T10:33:43.501Z,11.57
2022-09-18T10:36:22.592Z,11.63
2022-09-18T10:38:50.022Z,9.18
2022-09-18T10:41:17.663Z,8.20
2022-09-18T10:43:57.852Z,7.13
2022-09-18T10:46:34.900Z,7.32
2022-09-18T10:49:15.203Z,7.30
2022-09-18T10:51:41.659Z,6.63
2022-09-18T10:54:16.782Z,5.60
2022-09-18T10:56:43.371Z,7.45
2022-09-18T10:59:29.063Z,7.68
2022-09-18T11:01:59.881Z,7.35
2022-09-18T11:04:27.458Z,5.55
2022-09-18T11:06:54.035Z,5.05
2022-09-18T11:09:36.977Z,4.70
2022-09-18T11:12:03.513Z,2.75
2022-09-18T11:14:39.539Z,2.42
2022-09-18T11:17:06.235Z,1.77
2022-09-18T11:19:39.648Z,1.75
2022-09-18T11:22:10.454Z,2.80
2022-09-18T11:24:38.239Z,3.58
2022-09-18T11:27:24.909Z,3.38
2022-09-18T11:29:51.451Z,3.72
2022-09-18T11:32:31.955Z,1.92
2022-09-18T11:35:01.965Z,3.13
2022-09-18T11:37:37.855Z,2.03
2022-09-18T11:40:07.763Z,3.65
2022-09-18T11:42:45.303Z,2.45
2022-09-18T11:45:50.791Z,2.00
2022-09-18T11:48:36.133Z,2.75
2022-09-18T11:51:05.316Z,4.28
2022-09-18T11:53:51.926Z,6.40
2022-09-18T11:56:23.859Z,1.65
2022-09-18T11:59:02.081Z,1.20
2022-09-18T12:01:33.200Z,2.60
2022-09-18T12:04:05.731Z,1.60
2022-09-18T12:06:42.639Z,1.95
2022-09-18T12:09:18.671Z,3.05
2022-09-18T12:11:54.149Z,3.33
2022-09-18T12:14:23.011Z,3.25
2022-09-18T12:17:00.729Z,2.35
2022-09-18T12:19:36.174Z,2.03
2022-09-18T12:22:26.327Z,3.55
2022-09-18T12:24:52.821Z,3.67
2022-09-18T12:27:36.405Z,1.98
2022-09-18T12:30:11.003Z,4.68
2022-09-18T12:33:07.808Z,3.22
2022-09-18T12:35:52.823Z,1.27
2022-09-18T12:38:46.444Z,3.45
2022-09-18T12:41:16.363Z,2.47
2022-09-18T12:44:16.147Z,1.50
2022-09-18T12:47:01.336Z,5.05
2022-09-18T12:49:44.472Z,3.60
2022-09-18T12:52:33.470Z,2.70
2022-09-18T12:55:04.413Z,2.03
2022-09-18T12:57:57.399Z,4.35
2022-09-18T13:00:24.111Z,3.63
2022-09-18T13:02:56.949Z,2.60
2022-09-18T13:05:41.083Z,4.53
2022-09-18T13:08:14.075Z,2.63
2022-09-18T13:10:45.502Z,2.08
2022-09-18T13:13:18.586Z,1.92
2022-09-18T13:15:47.133Z,1.85
2022-09-18T13:18:28.627Z,3.20
2022-09-18T13:20:57.258Z,2.35
2022-09-18T13:23:33.374Z,1.20
2022-09-18T13:26:01.616Z,1.25
2022-09-18T13:28:31.279Z,0.77
2022-09-18T13:31:24.962Z,2.58
2022-09-18T13:34:04.110Z,1.45
2022-09-18T13:36:35.652Z,1.75
2022-09-18T13:39:05.247Z,0.75
2022-09-18T13:41:53.272Z,1.98
2022-09-18T13:44:22.186Z,1.95
2022-09-18T13:46:50.383Z,0.50
2022-09-18T13:49:22.794Z,1.10
2022-09-18T13:51:49.242Z,1.33
2022-09-18T13:54:22.981Z,1.05
2022-09-18T13:57:10.812Z,1.17
2022-09-18T14:00:07.020Z,2.05
2022-09-18T14:02:40.844Z,1.48
2022-09-18T14:05:33.112Z,0.65
2022-09-18T14:08:10.207Z,1.13
2022-09-18T14:11:05.336Z,0.95
2022-09-18T14:13:55.217Z,1.13
2022-09-18T14:16:23.792Z,0.70
2022-09-18T14:18:57.042Z,1.00
2022-09-18T14:21:26.910Z,0.50
2022-09-18T14:24:10.994Z,0.68
2022-09-18T14:26:38.517Z,1.05
2022-09-18T14:29:19.373Z,1.08
2022-09-18T14:31:52.203Z,1.58
2022-09-18T14:34:37.866Z,0.82
2022-09-18T14:37:26.731Z,1.25
2022-09-18T14:39:55.445Z,0.15
2022-09-18T14:42:33.164Z,0.60
2022-09-18T14:45:10.953Z,0.40
2022-09-18T14:47:38.069Z,0.17
2022-09-18T14:50:22.409Z,0.28
2022-09-18T14:52:48.873Z,0.82
2022-09-18T14:55:22.766Z,0.20
2022-09-18T14:58:06.165Z,0.80
2022-09-18T15:00:34.382Z,0.17
2022-09-18T15:03:05.345Z,1.05
2022-09-18T15:05:32.913Z,0.25
2022-09-18T15:08:04.710Z,0.10
2022-09-18T15:10:32.572Z,2.88
2022-09-18T15:12:59.559Z,0.10
2022-09-18T15:15:29.324Z,0.30
2022-09-18T15:17:57.037Z,0.00
2022-09-18T15:20:25.188Z,0.20
2022-09-18T15:22:53.226Z,0.85
2022-09-18T15:25:31.081Z,0.10
2022-09-18T15:27:59.231Z,0.20
2022-09-18T15:30:25.770Z,0.10
2022-09-18T15:33:03.538Z,0.25
2022-09-18T15:35:37.436Z,0.47
2022-09-18T15:38:06.934Z,0.73
2022-09-18T15:40:38.371Z,0.20
2022-09-18T15:43:14.416Z,0.30
2022-09-18T15:46:04.713Z,0.20
2022-09-18T15:48:47.483Z,0.40
2022-09-18T15:51:24.214Z,0.47
2022-09-18T15:54:22.093Z,0.43
2022-09-18T15:56:51.385Z,0.32
2022-09-18T15:59:26.214Z,0.47
2022-09-18T16:01:52.724Z,0.30
2022-09-18T16:04:23.614Z,1.17
2022-09-18T16:07:03.132Z,0.40
2022-09-18T16:09:42.673Z,0.90
2022-09-18T16:12:21.378Z,0.30
2022-09-18T16:15:13.696Z,0.20
2022-09-18T16:17:46.455Z,0.10
2022-09-18T16:20:40.596Z,0.93
2022-09-18T16:25:43.400Z,0.10
2022-09-18T16:28:20.072Z,1.95
2022-09-18T16:30:47.528Z,0.20
2022-09-18T16:33:25.917Z,0.22
2022-09-18T16:35:59.743Z,0.52
2022-09-18T16:38:26.534Z,1.48
2022-09-18T16:40:53.239Z,0.22
2022-09-18T16:43:19.747Z,0.30
2022-09-18T16:45:49.042Z,1.80
2022-09-18T16:48:18.370Z,0.20
2022-09-18T16:50:45.713Z,0.47
2022-09-18T16:53:12.548Z,2.05
2022-09-18T16:55:42.317Z,0.40
2022-09-18T16:58:09.964Z,0.20
2022-09-18T17:00:37.484Z,0.10
2022-09-18T17:03:06.163Z,0.28
2022-09-18T17:05:34.598Z,0.38
2022-09-18T17:08:03.913Z,0.77
2022-09-18T17:10:31.971Z,0.55
2022-09-18T17:12:58.675Z,1.23
2022-09-18T17:15:25.206Z,0.20
2022-09-18T17:17:52.499Z,0.85
2022-09-18T17:20:19.061Z,1.45
2022-09-18T17:22:46.045Z,0.28
2022-09-18T17:25:13.866Z,0.32
2022-09-18T17:27:43.730Z,0.73
2022-09-18T17:30:11.610Z,0.52
2022-09-18T17:32:38.425Z,1.35
2022-09-18T17:35:05.216Z,0.40
2022-09-18T17:37:31.793Z,0.17
2022-09-18T17:40:00.324Z,0.22
2022-09-18T17:42:30.058Z,0.52
2022-09-18T17:44:56.674Z,0.20
2022-09-18T17:47:23.638Z,0.28
2022-09-18T17:49:50.278Z,0.68
2022-09-18T17:52:17.160Z,0.20
2022-09-18T17:54:43.671Z,0.60
2022-09-18T17:57:13.191Z,0.28
2022-09-18T17:59:42.436Z,0.90
2022-09-18T18:02:10.814Z,0.55
2022-09-18T18:04:37.761Z,0.82
2022-09-18T18:07:05.478Z,0.40
2022-09-18T18:09:35.129Z,0.55
2022-09-18T18:12:01.757Z,1.17
2022-09-18T18:14:29.027Z,0.35
2022-09-18T18:16:55.569Z,1.75
2022-09-18T18:19:22.123Z,0.43
2022-09-18T18:21:48.735Z,0.57
2022-09-18T18:24:16.955Z,1.48
2022-09-18T18:26:44.802Z,0.40
2022-09-18T18:29:13.217Z,0.40
2022-09-18T18:31:41.052Z,0.52
2022-09-18T18:34:10.682Z,0.52
2022-09-18T18:36:38.865Z,0.68
2022-09-18T18:39:09.632Z,0.50
2022-09-18T18:41:36.915Z,0.40
2022-09-18T18:44:05.610Z,0.80
2022-09-18T18:46:35.747Z,1.58
2022-09-18T18:49:11.374Z,0.70
2022-09-18T18:51:43.643Z,0.70
2022-09-18T18:54:11.649Z,0.75
2022-09-18T18:56:38.685Z,0.50
2022-09-18T18:59:07.111Z,1.00
2022-09-18T19:01:33.793Z,0.50
2022-09-18T19:04:03.053Z,0.43
2022-09-18T19:06:29.818Z,0.63
2022-09-18T19:08:59.007Z,0.68
2022-09-18T19:11:25.887Z,0.82
2022-09-18T19:13:56.572Z,0.70
2022-09-18T19:16:24.698Z,0.40
2022-09-18T19:18:53.879Z,0.57
2022-09-18T19:21:23.523Z,0.40
2022-09-18T19:23:52.225Z,0.35
2022-09-18T19:26:21.093Z,0.47
2022-09-18T19:28:52.043Z,0.32
2022-09-18T19:31:19.486Z,0.40
2022-09-18T19:33:48.934Z,0.45
2022-09-18T19:36:15.623Z,1.75
2022-09-18T19:38:42.336Z,0.40
2022-09-18T19:41:41.114Z,0.45
2022-09-18T19:44:29.186Z,0.47
2022-09-18T19:46:58.111Z,1.40
2022-09-18T19:49:31.094Z,0.45
2022-09-18T19:51:59.081Z,0.57
2022-09-18T19:54:25.877Z,0.55
2022-09-18T19:56:52.923Z,0.77
2022-09-18T19:59:19.639Z,1.65
2022-09-18T20:01:46.297Z,0.70
2022-09-18T20:04:12.815Z,0.38
2022-09-18T20:06:40.399Z,1.17
2022-09-18T20:09:07.127Z,1.30
2022-09-18T20:11:33.633Z,0.40
2022-09-18T20:14:00.213Z,0.73
2022-09-18T20:16:26.970Z,0.60
2022-09-18T20:18:54.523Z,0.55
2022-09-18T20:21:21.061Z,0.40
2022-09-18T20:23:48.248Z,1.15
2022-09-18T20:26:16.954Z,0.75
2022-09-18T20:28:43.739Z,0.98
2022-09-18T20:31:12.621Z,0.57
2022-09-18T20:33:39.294Z,1.80
2022-09-18T20:36:07.217Z,0.90
2022-09-18T20:38:36.422Z,0.80
2022-09-18T20:41:07.074Z,0.70
2022-09-18T20:43:35.748Z,0.65
2022-09-18T20:46:04.451Z,0.77
2022-09-18T20:48:35.626Z,0.85
2022-09-18T20:51:09.645Z,1.85
2022-09-18T20:53:41.121Z,1.35
2022-09-18T20:56:09.185Z,0.88
2022-09-18T20:58:36.768Z,0.50
2022-09-18T21:01:20.325Z,1.45
2022-09-18T21:03:49.443Z,0.73
2022-09-18T21:06:22.833Z,1.33
2022-09-18T21:08:53.091Z,1.60
2022-09-18T21:11:24.538Z,1.95
2022-09-18T21:13:52.996Z,1.40
2022-09-18T21:16:20.861Z,1.65
2022-09-18T21:18:48.189Z,1.13
2022-09-18T21:21:16.191Z,2.72
2022-09-18T21:24:01.942Z,1.10
2022-09-18T21:26:34.411Z,1.20
2022-09-18T21:29:10.383Z,1.23
2022-09-18T21:31:38.365Z,4.38
2022-09-18T21:34:05.430Z,0.73
2022-09-18T21:36:38.313Z,1.65
2022-09-18T21:39:07.558Z,0.60
2022-09-18T21:41:38.655Z,0.52
2022-09-18T21:44:09.318Z,1.08
2022-09-18T21:46:37.938Z,2.38
2022-09-18T21:49:06.739Z,0.85
2022-09-18T21:51:34.281Z,0.95
2022-09-18T21:54:03.422Z,0.57
2022-09-18T21:56:29.877Z,3.42
2022-09-18T21:58:56.435Z,1.83
2022-09-18T22:01:25.104Z,2.30
2022-09-18T22:03:54.679Z,2.50
2022-09-18T22:06:23.263Z,0.40
2022-09-18T22:08:53.309Z,3.13
2022-09-18T22:11:24.071Z,3.33
2022-09-18T22:13:52.662Z,1.40
2022-09-18T22:16:20.612Z,1.65
2022-09-18T22:18:49.979Z,2.58
2022-09-18T22:21:19.240Z,1.40
2022-09-18T22:23:48.587Z,1.52
2022-09-18T22:26:15.209Z,1.38
2022-09-18T22:28:42.263Z,2.10
2022-09-18T22:31:08.746Z,1.15
2022-09-18T22:33:35.272Z,0.60
2022-09-18T22:36:05.190Z,2.00
2022-09-18T22:38:32.527Z,0.98
2022-09-18T22:41:06.468Z,1.90
2022-09-18T22:43:33.939Z,2.08
2022-09-18T22:46:02.378Z,1.13
2022-09-18T22:48:31.211Z,1.92
2022-09-18T22:51:09.496Z,0.80
2022-09-18T22:53:36.632Z,2.38
2022-09-18T22:56:05.363Z,0.60
2022-09-18T22:58:32.178Z,1.00
2022-09-18T23:01:09.989Z,2.20
2022-09-18T23:03:38.035Z,1.67
2022-09-18T23:06:06.377Z,1.15
2022-09-18T23:08:33.597Z,1.52
2022-09-18T23:11:07.314Z,0.50
2022-09-18T23:13:35.372Z,0.98
2022-09-18T23:16:04.594Z,1.90
2022-09-18T23:18:31.792Z,1.55
2022-09-18T23:21:02.758Z,2.08
2022-09-18T23:23:32.034Z,3.10
2022-09-18T23:26:10.618Z,1.13
2022-09-18T23:28:42.906Z,2.10
2022-09-18T23:31:11.603Z,2.17
2022-09-18T23:33:39.165Z,1.85
2022-09-18T23:36:14.569Z,0.98
2022-09-18T23:38:42.433Z,1.60
2022-09-18T23:41:11.978Z,2.58
2022-09-18T23:43:39.577Z,1.70
2022-09-18T23:46:07.895Z,1.65
2022-09-18T23:48:34.711Z,1.02
2022-09-18T23:51:02.283Z,3.17
2022-09-18T23:53:32.687Z,3.17
2022-09-18T23:56:10.247Z,1.55
2022-09-18T23:58:37.798Z,1.48
